Time;durP1;ratioP1;P1;durP2;ratioP2;P2;SDS_P1;SDS_P2;PMS_P1;PMS_P2;Temp;Humidity;BMP_temperature;BMP_pressure;BME280_temperature;BME280_humidity;BME280_pressure;Samples;Min_cycle;Max_cycle;Signal;HPM_P1;HPM_P2
2024/04/04 00:01:56;;;;;;;4.13;1.80;;;;;;;18.67;36.96;99505.47;5090069;28;20063;-25
2024/04/04 00:04:21;;;;;;;4.22;2.00;;;;;;;18.64;36.55;99489.81;5089862;28;20024;-25
2024/04/04 00:06:47;;;;;;;3.38;2.22;;;;;;;18.59;36.84;99505.97;5089986;28;20016;-27
2024/04/04 00:09:13;;;;;;;3.80;2.30;;;;;;;18.64;36.97;99506.81;5090068;28;20302;-25
2024/04/04 00:11:39;;;;;;;3.65;2.53;;;;;;;18.61;37.08;99493.03;5091828;28;20016;-26
2024/04/04 00:14:06;;;;;;;6.00;2.42;;;;;;;18.64;36.96;99497.88;5093684;28;20030;-25
2024/04/04 00:16:35;;;;;;;4.82;2.45;;;;;;;18.63;37.19;99501.69;5094016;28;20028;-26
2024/04/04 00:19:01;;;;;;;5.28;2.20;;;;;;;18.72;36.81;99503.59;5093754;28;20099;-26
2024/04/04 00:21:27;;;;;;;6.10;2.35;;;;;;;18.54;37.25;99502.19;5093558;28;20562;-25
2024/04/04 00:23:52;;;;;;;6.15;2.05;;;;;;;18.49;37.14;99495.97;5091843;28;20024;-25
2024/04/04 00:26:20;;;;;;;6.95;2.38;;;;;;;18.57;37.46;99490.06;5093705;28;20026;-26
2024/04/04 00:28:45;;;;;;;5.25;2.45;;;;;;;18.50;37.36;99492.97;5093427;28;20060;-25
2024/04/04 00:31:11;;;;;;;8.05;2.53;;;;;;;18.55;37.05;99492.22;5093494;28;20524;-26
2024/04/04 00:33:36;;;;;;;4.00;2.45;;;;;;;18.59;37.03;99489.81;5093522;28;20039;-26
2024/04/04 00:36:02;;;;;;;4.95;2.53;;;;;;;18.65;37.55;99483.34;5092945;28;20098;-25
2024/04/04 00:38:27;;;;;;;4.60;2.40;;;;;;;18.61;37.75;99493.03;5093166;28;20109;-25
2024/04/04 00:40:53;;;;;;;5.78;2.88;;;;;;;18.67;37.52;99492.00;5093284;28;20097;-25
2024/04/04 00:43:18;;;;;;;6.07;2.80;;;;;;;18.61;37.45;99493.03;5092909;28;20020;-26
2024/04/04 00:45:44;;;;;;;5.90;2.80;;;;;;;18.49;37.83;99493.25;5093033;28;20476;-26
2024/04/04 00:48:10;;;;;;;5.18;2.58;;;;;;;18.46;38.07;99488.38;5093077;28;20023;-26
2024/04/04 00:50:38;;;;;;;5.32;2.75;;;;;;;18.42;38.14;99490.78;5092855;28;20174;-27
2024/04/04 00:53:04;;;;;;;5.03;2.70;;;;;;;18.40;38.10;99492.13;5093013;28;20345;-26
2024/04/04 00:55:30;;;;;;;5.25;2.80;;;;;;;18.31;38.41;99487.22;5092938;28;20058;-26
2024/04/04 00:57:56;;;;;;;4.38;2.47;;;;;;;18.28;38.78;99481.56;5092609;28;20024;-24
2024/04/04 01:00:25;;;;;;;7.22;2.55;;;;;;;18.35;37.93;99474.03;5092845;28;20329;-26
2024/04/04 01:02:51;;;;;;;6.27;2.80;;;;;;;18.31;37.98;99473.75;5092860;28;20127;-26
2024/04/04 01:05:17;;;;;;;5.78;2.67;;;;;;;18.35;38.01;99479.44;5092533;28;20254;-26
2024/04/04 01:07:44;;;;;;;5.50;2.60;;;;;;;18.40;37.79;99482.16;5092554;28;20500;-26
2024/04/04 01:10:10;;;;;;;4.72;2.80;;;;;;;18.27;38.07;99477.22;5091983;28;20632;-26
2024/04/04 01:12:37;;;;;;;8.30;2.50;;;;;;;18.17;38.68;99483.38;5091594;28;20080;-26
2024/04/04 01:15:03;;;;;;;4.18;2.30;;;;;;;18.12;38.45;99486.03;5090331;28;20043;-26
2024/04/04 01:17:28;;;;;;;4.97;2.47;;;;;;;17.93;39.24;99489.16;5092019;28;20442;-26
2024/04/04 01:19:54;;;;;;;4.18;2.17;;;;;;;17.93;39.21;99478.38;5092733;28;20103;-25
2024/04/04 01:22:20;;;;;;;4.82;2.00;;;;;;;18.00;39.14;99478.16;5091646;28;20131;-26
2024/04/04 01:24:46;;;;;;;5.57;2.03;;;;;;;18.04;39.06;99487.31;5092346;28;20109;-26
2024/04/04 01:27:12;;;;;;;4.85;2.20;;;;;;;18.03;39.00;99482.19;5092153;28;20471;-26
2024/04/04 01:29:37;;;;;;;3.28;2.13;;;;;;;18.14;38.83;99497.34;5092182;28;20345;-26
2024/04/04 01:32:03;;;;;;;5.90;2.10;;;;;;;18.07;38.85;99500.28;5091753;28;20030;-26
2024/04/04 01:34:28;;;;;;;5.32;1.92;;;;;;;17.98;38.93;99499.94;5092111;28;20035;-26
2024/04/04 01:36:54;;;;;;;2.78;1.80;;;;;;;17.93;38.81;99502.59;5091831;28;20028;-26
2024/04/04 01:39:19;;;;;;;4.00;2.15;;;;;;;17.97;38.86;99498.31;5091828;28;20417;-25
2024/04/04 01:41:46;;;;;;;3.67;1.90;;;;;;;18.01;38.54;99497.78;5091769;28;20028;-26
2024/04/04 01:44:11;;;;;;;4.07;2.17;;;;;;;17.90;39.60;99499.63;5089941;28;20024;-26
2024/04/04 01:46:37;;;;;;;3.33;2.10;;;;;;;17.85;39.50;99500.38;5088942;28;20028;-26
2024/04/04 01:49:02;;;;;;;5.97;2.10;;;;;;;17.83;39.08;99498.97;5071590;28;20013;-28
2024/04/04 01:51:28;;;;;;;3.42;1.92;;;;;;;17.87;39.09;99495.53;5071717;28;20134;-26
2024/04/04 01:53:53;;;;;;;3.70;1.90;;;;;;;17.91;39.07;99490.47;5070143;28;20468;-26
2024/04/04 01:56:18;;;;;;;5.60;2.00;;;;;;;17.61;39.82;99493.69;5071364;28;20028;-26
2024/04/04 01:58:44;;;;;;;4.53;2.25;;;;;;;17.71;39.59;99491.91;5071654;28;20081;-26
2024/04/04 02:01:09;;;;;;;3.83;2.15;;;;;;;17.56;40.65;99499.84;5071222;28;20024;-25
2024/04/04 02:03:35;;;;;;;7.43;2.50;;;;;;;17.58;40.72;99503.09;5070581;28;20119;-26
2024/04/04 02:06:00;;;;;;;4.72;2.20;;;;;;;17.62;40.92;99514.94;5071113;28;20025;-25
2024/04/04 02:08:25;;;;;;;4.55;2.60;;;;;;;17.67;40.82;99504.25;5071173;28;20408;-26
2024/04/04 02:10:51;;;;;;;9.13;2.63;;;;;;;17.66;40.76;99509.88;5071195;28;20033;-25
2024/04/04 02:13:16;;;;;;;5.00;2.47;;;;;;;17.60;41.00;99517.09;5071240;28;20081;-25
2024/04/04 02:15:42;;;;;;;5.57;2.45;;;;;;;17.62;40.64;99506.88;5071054;28;20024;-25
2024/04/04 02:18:07;;;;;;;6.03;2.50;;;;;;;17.67;40.86;99506.94;5071001;28;20028;-25
2024/04/04 02:20:33;;;;;;;5.43;2.70;;;;;;;17.64;41.08;99514.69;5070917;28;20024;-25
2024/04/04 02:22:59;;;;;;;8.55;2.75;;;;;;;17.46;41.24;99508.63;5071197;28;20048;-26
2024/04/04 02:25:24;;;;;;;6.38;2.65;;;;;;;17.51;41.37;99524.78;5071248;28;20020;-25
2024/04/04 02:27:50;;;;;;;8.77;3.20;;;;;;;17.57;41.13;99522.97;5070849;28;20453;-26
2024/04/04 02:30:15;;;;;;;7.10;3.03;;;;;;;17.64;41.14;99520.88;5070891;28;20048;-26
2024/04/04 02:32:41;;;;;;;6.72;2.80;;;;;;;17.59;41.14;99523.53;5070526;28;20016;-26
2024/04/04 02:35:08;;;;;;;3.22;2.38;;;;;;;17.49;41.23;99518.06;5070697;28;20527;-26
2024/04/04 02:37:34;;;;;;;9.02;2.65;;;;;;;17.46;41.51;99530.16;5081011;28;20024;-25
2024/04/04 02:39:59;;;;;;;7.15;2.50;;;;;;;17.41;41.34;99527.41;5090717;28;20054;-26
2024/04/04 02:42:25;;;;;;;6.05;2.50;;;;;;;17.43;41.32;99532.53;5090786;28;20058;-26
2024/04/04 02:44:50;;;;;;;6.25;2.47;;;;;;;17.42;41.78;99538.97;5090836;28;20036;-26
2024/04/04 02:47:15;;;;;;;8.95;2.60;;;;;;;17.50;41.48;99539.31;5090845;28;20043;-26
2024/04/04 02:49:41;;;;;;;5.57;2.50;;;;;;;17.35;41.86;99534.59;5090791;28;20065;-26
2024/04/04 02:52:06;;;;;;;5.22;2.40;;;;;;;17.15;42.04;99526.31;5090887;28;20024;-26
2024/04/04 02:54:32;;;;;;;6.90;2.58;;;;;;;17.20;41.67;99529.06;5090698;28;20031;-26
2024/04/04 02:56:57;;;;;;;5.20;2.50;;;;;;;17.16;41.74;99519.88;5090784;28;20172;-26
2024/04/04 02:59:23;;;;;;;3.40;2.35;;;;;;;16.98;42.34;99523.69;5090741;28;20040;-25
2024/04/04 03:01:48;;;;;;;6.38;2.85;;;;;;;17.11;41.69;99531.38;5090548;28;20459;-25
2024/04/04 03:04:14;;;;;;;5.13;2.55;;;;;;;17.03;42.40;99525.63;5090620;28;20035;-25
2024/04/04 03:06:39;;;;;;;5.97;2.80;;;;;;;17.12;42.10;99535.69;5089959;28;20020;-26
2024/04/04 03:09:08;;;;;;;5.32;2.72;;;;;;;17.22;42.09;99520.75;5090251;28;20115;-26
2024/04/04 03:11:34;;;;;;;6.93;2.63;;;;;;;17.24;41.72;99521.31;5090693;28;20055;-25
2024/04/04 03:14:00;;;;;;;4.47;2.80;;;;;;;17.14;41.68;99516.63;5090603;28;20028;-25
2024/04/04 03:16:25;;;;;;;6.82;3.17;;;;;;;17.09;41.81;99520.06;5090416;28;20027;-26
2024/04/04 03:18:51;;;;;;;4.60;3.00;;;;;;;17.04;42.35;99517.34;5090322;28;20544;-25
2024/04/04 03:21:16;;;;;;;6.35;2.95;;;;;;;16.93;42.73;99524.47;5089977;28;20074;-26
2024/04/04 03:23:42;;;;;;;8.57;3.13;;;;;;;16.88;43.05;99521.69;5089954;28;20128;-26
2024/04/04 03:26:07;;;;;;;5.03;2.95;;;;;;;16.88;43.11;99521.69;5089941;28;20476;-26
2024/04/04 03:28:32;;;;;;;8.00;3.20;;;;;;;16.98;43.22;99521.84;5090430;28;20025;-25
2024/04/04 03:30:58;;;;;;;6.00;3.10;;;;;;;16.80;42.80;99527.47;5090673;28;20024;-26
2024/04/04 03:33:23;;;;;;;7.22;3.50;;;;;;;16.66;42.99;99521.69;5090023;28;20023;-25
2024/04/04 03:35:49;;;;;;;7.47;3.03;;;;;;;16.70;42.91;99528.16;5090522;28;20016;-26
2024/04/04 03:38:14;;;;;;;5.57;3.38;;;;;;;16.66;43.38;99519.00;5090297;28;20063;-26
2024/04/04 03:40:40;;;;;;;8.70;3.63;;;;;;;16.75;42.86;99517.50;5090330;28;20036;-26
2024/04/04 03:43:06;;;;;;;7.47;3.25;;;;;;;16.69;43.16;99513.09;5090395;28;20026;-27
2024/04/04 03:45:38;;;;;;;9.38;3.90;;;;;;;16.72;42.86;99520.66;5091020;28;20028;-27
2024/04/04 03:48:03;;;;;;;10.30;3.65;;;;;;;16.69;42.86;99526.53;5095357;28;20020;-26
2024/04/04 03:50:30;;;;;;;12.05;4.13;;;;;;;16.52;43.26;99513.16;5094572;28;20052;-26
2024/04/04 03:52:56;;;;;;;14.52;7.43;;;;;;;16.52;43.66;99513.16;5094857;28;20024;-26
2024/04/04 03:55:21;;;;;;;18.60;5.80;;;;;;;16.46;43.48;99511.44;5094794;28;20035;-26
2024/04/04 03:57:46;;;;;;;14.05;5.85;;;;;;;16.50;44.09;99519.84;5095139;28;20036;-26
2024/04/04 04:00:12;;;;;;;17.75;6.05;;;;;;;16.51;43.51;99519.59;5094787;28;20545;-28
2024/04/04 04:02:38;;;;;;;12.25;5.15;;;;;;;16.55;43.87;99527.97;5094088;28;20035;-26
2024/04/04 04:05:04;;;;;;;11.55;3.80;;;;;;;16.51;43.41;99513.41;5094912;28;20492;-27
2024/04/04 04:07:29;;;;;;;10.88;4.38;;;;;;;16.39;44.03;99517.03;5095045;28;20048;-27
2024/04/04 04:09:55;;;;;;;8.10;3.35;;;;;;;16.47;43.37;99507.72;5095146;28;20043;-26
2024/04/04 04:12:20;;;;;;;6.05;3.10;;;;;;;16.53;43.23;99512.09;5093185;28;20035;-26
2024/04/04 04:14:45;;;;;;;7.18;3.70;;;;;;;16.38;43.51;99490.41;5094617;28;20103;-26
2024/04/04 04:17:11;;;;;;;11.43;3.60;;;;;;;16.57;43.85;99520.47;5094620;28;20115;-27
2024/04/04 04:19:38;;;;;;;10.77;3.85;;;;;;;16.46;43.62;99516.81;5094860;28;20028;-27
2024/04/04 04:22:04;;;;;;;6.32;3.15;;;;;;;16.57;44.44;99531.22;5094380;28;20031;-27
2024/04/04 04:24:29;;;;;;;18.75;4.30;;;;;;;16.54;44.77;99520.97;5094514;28;20020;-26
2024/04/04 04:26:54;;;;;;;16.75;5.00;;;;;;;16.64;44.53;99528.34;5094352;28;20035;-25
2024/04/04 04:29:20;;;;;;;13.50;4.80;;;;;;;16.54;44.01;99531.69;5093065;28;20018;-27
2024/04/04 04:31:45;;;;;;;19.40;5.63;;;;;;;16.59;44.14;99534.47;5094409;28;20016;-27
2024/04/04 04:34:11;;;;;;;17.38;5.05;;;;;;;16.38;44.79;99528.81;5094005;28;20472;-26
2024/04/04 04:36:40;;;;;;;14.98;4.72;;;;;;;16.39;45.25;99532.28;5094177;28;20028;-26
2024/04/04 04:39:05;;;;;;;20.33;4.78;;;;;;;16.53;45.24;99528.22;5094332;28;20093;-27
2024/04/04 04:41:31;;;;;;;18.70;4.25;;;;;;;16.58;44.95;99532.81;5094585;28;20119;-27
2024/04/04 04:43:56;;;;;;;12.15;4.60;;;;;;;16.64;44.42;99541.78;5094477;28;20024;-26
2024/04/04 04:46:22;;;;;;;14.77;4.50;;;;;;;16.61;44.30;99545.78;5094550;28;20024;-28
2024/04/04 04:48:47;;;;;;;15.80;5.43;;;;;;;16.97;54.62;99559.72;5094250;28;20027;-26
2024/04/04 04:51:13;;;;;;;13.30;5.30;;;;;;;17.51;51.16;99559.75;5094162;28;20120;-27
2024/04/04 04:53:39;;;;;;;12.65;4.57;;;;;;;17.92;48.74;99557.50;5094258;28;20028;-26
2024/04/04 04:56:05;;;;;;;14.13;4.80;;;;;;;18.34;48.62;99553.25;5093532;28;20028;-27
2024/04/04 04:58:31;;;;;;;10.68;4.45;;;;;;;18.63;44.05;99553.69;5092211;28;20016;-27
2024/04/04 05:00:57;;;;;;;15.85;5.03;;;;;;;18.97;43.53;99563.31;5093562;28;20519;-28
2024/04/04 05:03:23;;;;;;;19.95;4.97;;;;;;;19.33;41.48;99569.66;5093995;28;20028;-26
2024/04/04 05:05:52;;;;;;;14.93;4.78;;;;;;;19.68;42.17;99570.81;5090769;28;20081;-27
2024/04/04 05:08:19;;;;;;;13.63;4.32;;;;;;;20.02;42.18;99557.63;5091808;28;20497;-26
2024/04/04 05:10:45;;;;;;;13.43;3.78;;;;;;;20.54;39.48;99560.25;5093772;28;20035;-27
2024/04/04 05:13:11;;;;;;;11.38;5.63;;;;;;;20.92;40.97;99568.84;5093616;28;20399;-26
2024/04/04 05:15:53;;;;;;;11.55;4.88;;;;;;;21.45;37.80;99564.56;5093787;28;20472;-27
2024/04/04 05:18:22;;;;;;;25.65;5.50;;;;;;;21.64;36.31;99561.19;5092285;28;20024;-27
2024/04/04 05:20:48;;;;;;;15.02;4.53;;;;;;;21.71;34.79;99561.69;5093040;28;20024;-26
2024/04/04 05:23:13;;;;;;;37.05;18.88;;;;;;;22.09;35.89;99574.69;5091226;28;20030;-26
2024/04/04 05:25:39;;;;;;;43.63;21.58;;;;;;;22.43;34.33;99569.25;5092023;28;20020;-27
2024/04/04 05:28:06;;;;;;;9.82;4.10;;;;;;;22.58;32.79;99576.41;5092193;28;20031;-26
2024/04/04 05:30:31;;;;;;;12.35;5.55;;;;;;;21.82;34.72;99573.28;5092210;28;20016;-27
2024/04/04 05:33:03;;;;;;;11.07;4.20;;;;;;;22.58;34.25;99566.38;5092760;28;20027;-26
2024/04/04 05:35:29;;;;;;;9.70;5.07;;;;;;;22.84;33.67;99579.66;5092708;28;20020;-26
2024/04/04 05:37:55;;;;;;;11.50;5.03;;;;;;;23.41;34.26;99586.03;5092203;28;20058;-26
2024/04/04 05:40:21;;;;;;;15.10;5.18;;;;;;;23.05;33.69;99587.59;5091642;28;20025;-27
2024/04/04 05:42:46;;;;;;;15.88;7.75;;;;;;;23.49;34.43;99584.56;5092118;28;20013;-27
2024/04/04 05:45:11;;;;;;;14.77;5.35;;;;;;;23.86;32.49;99585.69;5092165;28;20054;-28
2024/04/04 05:47:37;;;;;;;10.60;4.18;;;;;;;24.69;31.10;99579.66;5092225;28;20028;-26
2024/04/04 05:50:03;;;;;;;14.13;5.28;;;;;;;25.00;30.34;99577.16;5092515;28;20020;-27
2024/04/04 05:52:29;;;;;;;14.27;4.05;;;;;;;24.77;30.03;99577.06;5092429;28;20523;-26
2024/04/04 05:54:54;;;;;;;7.72;4.13;;;;;;;24.28;31.58;99583.91;5092274;28;20150;-27
2024/04/04 05:57:20;;;;;;;9.40;3.70;;;;;;;23.84;30.66;99578.91;5092297;28;20020;-28
2024/04/04 05:59:45;;;;;;;8.40;3.60;;;;;;;23.95;30.34;99572.22;5092232;28;20020;-26
2024/04/04 06:02:11;;;;;;;7.18;3.38;;;;;;;24.26;30.22;99575.25;5092059;28;20147;-27
2024/04/04 06:04:36;;;;;;;5.57;2.92;;;;;;;24.08;31.51;99581.53;5091887;28;20058;-29
2024/04/04 06:07:02;;;;;;;9.43;3.22;;;;;;;24.19;31.37;99575.63;5090891;28;20024;-27
2024/04/04 06:09:28;;;;;;;8.63;3.50;;;;;;;25.13;29.21;99570.06;5091353;28;20028;-26
2024/04/04 06:11:54;;;;;;;7.78;3.00;;;;;;;24.86;29.66;99579.06;5091744;28;20040;-27
2024/04/04 06:14:19;;;;;;;8.52;3.00;;;;;;;24.05;30.70;99580.22;5092052;28;20047;-27
2024/04/04 06:16:44;;;;;;;8.45;3.10;;;;;;;25.28;29.20;99572.50;5092060;28;20027;-27
2024/04/04 06:19:10;;;;;;;9.18;3.50;;;;;;;26.07;28.91;99573.19;5089696;28;20114;-26
2024/04/04 06:21:35;;;;;;;11.40;3.60;;;;;;;26.45;27.61;99584.47;5092026;28;20119;-28
2024/04/04 06:24:01;;;;;;;10.52;3.60;;;;;;;27.22;27.55;99585.06;5091905;28;20120;-27
2024/04/04 06:26:28;;;;;;;7.13;3.13;;;;;;;26.77;27.24;99582.56;5091859;28;20024;-28
2024/04/04 06:28:55;;;;;;;12.50;5.00;;;;;;;26.49;27.61;99593.63;5091608;28;20399;-28
2024/04/04 06:31:20;;;;;;;22.58;4.35;;;;;;;26.86;31.83;99599.75;5091510;28;20027;-28
2024/04/04 06:33:46;;;;;;;11.48;3.33;;;;;;;27.26;26.87;99601.66;5091659;28;20529;-28
2024/04/04 06:36:11;;;;;;;14.55;3.28;;;;;;;27.95;26.04;99606.41;5091590;28;20020;-29
2024/04/04 06:38:37;;;;;;;11.15;3.38;;;;;;;27.93;25.77;99614.13;5076287;28;20131;-26
2024/04/04 06:41:03;;;;;;;8.50;3.03;;;;;;;28.28;25.41;99611.34;5090888;28;20443;-27
2024/04/04 06:43:28;;;;;;;8.15;3.00;;;;;;;28.52;24.89;99618.22;5090394;28;20048;-28
2024/04/04 06:45:54;;;;;;;11.23;3.20;;;;;;;28.87;25.21;99610.69;5089342;28;20028;-28
2024/04/04 06:48:19;;;;;;;15.35;3.95;;;;;;;28.92;25.07;99607.78;5088948;28;20020;-40
2024/04/04 06:50:46;;;;;;;9.73;3.08;;;;;;;28.63;25.17;99608.53;5089932;28;20026;-40
2024/04/04 06:53:11;;;;;;;9.68;2.92;;;;;;;29.27;24.46;99613.09;5090595;28;20032;-41
2024/04/04 06:55:37;;;;;;;9.25;2.83;;;;;;;29.34;24.42;99615.28;5090731;28;20028;-40
2024/04/04 06:58:03;;;;;;;10.13;2.90;;;;;;;29.49;24.01;99603.72;5091377;28;20517;-43
2024/04/04 07:00:28;;;;;;;7.60;3.63;;;;;;;29.81;23.77;99607.69;5090601;28;20424;-40
2024/04/04 07:02:54;;;;;;;6.13;3.30;;;;;;;30.18;23.50;99602.38;5084623;28;20448;-38
2024/04/04 07:05:19;;;;;;;9.73;3.50;;;;;;;29.73;24.19;99600.34;5090198;28;20054;-42
2024/04/04 07:07:45;;;;;;;10.65;3.80;;;;;;;30.44;23.18;99598.56;5089813;28;20069;-37
2024/04/04 07:10:10;;;;;;;8.15;2.90;;;;;;;30.57;23.23;99600.19;5089876;28;20055;-40
2024/04/04 07:12:35;;;;;;;12.32;3.10;;;;;;;30.91;22.88;99602.88;5086648;28;20036;-39
2024/04/04 07:15:02;;;;;;;11.75;3.30;;;;;;;30.93;22.99;99595.88;5091325;28;20028;-39
2024/04/04 07:17:30;;;;;;;8.90;2.92;;;;;;;31.07;22.59;99600.22;5091061;28;20467;-38
2024/04/04 07:19:57;;;;;;;9.07;3.20;;;;;;;30.60;22.94;99606.97;5082217;28;20036;-40
2024/04/04 07:22:23;;;;;;;9.95;3.00;;;;;;;30.35;23.15;99593.19;5092907;28;20035;-41
2024/04/04 07:24:48;;;;;;;16.10;4.07;;;;;;;30.69;23.04;99604.09;5095103;28;20032;-40
2024/04/04 07:27:14;;;;;;;9.65;3.15;;;;;;;29.74;23.36;99601.97;5095165;28;20484;-38
2024/04/04 07:29:41;;;;;;;12.68;2.75;;;;;;;29.24;24.35;99597.31;5094416;28;20081;-39
2024/04/04 07:32:08;;;;;;;6.38;2.50;;;;;;;28.91;24.15;99597.94;5095265;28;20024;-38
2024/04/04 07:34:34;;;;;;;10.23;2.50;;;;;;;29.57;23.86;99591.91;5094900;28;20024;-40
2024/04/04 07:36:59;;;;;;;9.43;2.45;;;;;;;30.33;22.80;99600.97;5095156;28;20057;-40
2024/04/04 07:39:25;;;;;;;9.25;2.40;;;;;;;30.19;22.99;99606.69;5094341;28;20109;-39
2024/04/04 07:41:50;;;;;;;7.28;2.15;;;;;;;29.49;23.21;99601.00;5078608;28;20033;-41
2024/04/04 07:44:16;;;;;;;6.93;2.20;;;;;;;29.90;22.25;99593.13;5093745;28;20032;-38
2024/04/04 07:46:41;;;;;;;5.50;2.00;;;;;;;30.40;22.08;99584.72;5092989;28;20032;-40
2024/04/04 07:49:08;;;;;;;5.72;2.20;;;;;;;30.92;21.96;99590.72;5092212;28;20031;-45
2024/04/04 07:51:34;;;;;;;6.75;1.98;;;;;;;31.41;21.05;99595.38;5092509;28;20032;-42
2024/04/04 07:54:00;;;;;;;4.70;1.85;;;;;;;31.65;20.69;99587.09;5094006;28;20035;-40
2024/04/04 07:56:26;;;;;;;6.65;1.85;;;;;;;31.52;20.73;99591.03;5094855;28;20030;-39
2024/04/04 07:58:51;;;;;;;5.40;3.25;;;;;;;31.17;21.47;99575.84;5094305;28;20081;-37
2024/04/04 08:01:17;;;;;;;11.88;2.85;;;;;;;30.69;21.64;99588.44;5094348;28;20268;-38
2024/04/04 08:03:46;;;;;;;6.55;3.38;;;;;;;31.29;20.97;99579.72;5094617;28;20031;-40
2024/04/04 08:06:12;;;;;;;;;;;;;;;31.79;20.34;99585.91;5094887;28;20027;-39
2024/04/04 08:08:38;;;;;;;4.82;2.20;;;;;;;31.60;20.83;99592.84;5094646;28;19916;-40
2024/04/04 08:11:05;;;;;;;5.95;2.10;;;;;;;31.92;20.31;99584.69;5093471;28;20016;-43
2024/04/04 08:13:30;;;;;;;4.93;3.83;;;;;;;31.79;20.52;99581.19;5094521;28;20496;-39
2024/04/04 08:15:56;;;;;;;6.55;3.67;;;;;;;32.24;20.02;99582.03;5094302;28;20480;-41
2024/04/04 08:18:21;;;;;;;8.68;3.67;;;;;;;32.55;19.85;99586.75;5094098;28;20044;-39
2024/04/04 08:20:47;;;;;;;3.92;2.00;;;;;;;32.51;19.23;99578.41;5094226;28;20028;-40
2024/04/04 08:23:14;;;;;;;6.20;1.90;;;;;;;32.11;19.81;99578.56;5094522;28;20472;-38
2024/04/04 08:25:55;;;;;;;4.85;2.33;;;;;;;31.93;20.09;99586.31;5094417;28;20518;-39
2024/04/04 08:28:21;;;;;;;4.18;1.90;;;;;;;31.33;20.35;99572.38;5094001;28;20214;-40
2024/04/04 08:30:56;;;;;;;4.05;1.58;;;;;;;32.05;20.12;99572.50;5094064;28;20173;-39
2024/04/04 08:33:21;;;;;;;5.35;1.90;;;;;;;31.98;20.02;99568.72;5093713;28;20460;-38
2024/04/04 08:35:46;;;;;;;4.57;1.55;;;;;;;32.44;19.57;99564.47;5094076;28;20053;-38
2024/04/04 08:38:12;;;;;;;4.22;1.60;;;;;;;33.05;19.22;99571.47;5094048;28;20052;-38
2024/04/04 08:40:39;;;;;;;3.50;1.60;;;;;;;31.79;20.18;99559.19;5093794;28;20028;-41
2024/04/04 08:43:06;;;;;;;15.02;2.50;;;;;;;31.24;20.93;99556.00;5081562;28;20031;-41
2024/04/04 08:45:34;;;;;;;7.70;1.60;;;;;;;30.47;21.19;99555.94;5093693;28;20039;-39
2024/04/04 08:48:04;;;;;;;2.25;1.60;;;;;;;29.94;21.52;99550.97;5092423;28;20031;-38
2024/04/04 08:50:30;;;;;;;2.72;1.67;;;;;;;30.05;21.30;99545.06;5075875;28;20515;-40
2024/04/04 08:52:55;;;;;;;2.97;1.60;;;;;;;30.72;20.53;99541.06;5080482;28;20024;-39
2024/04/04 08:55:21;;;;;;;6.72;2.38;;;;;;;30.17;20.67;99545.88;5083861;28;20480;-38
2024/04/04 08:57:47;;;;;;;5.40;1.65;;;;;;;30.26;20.77;99537.56;5077412;28;20045;-38
2024/04/04 09:00:19;;;;;;;4.32;1.70;;;;;;;30.53;20.87;99533.38;5090777;28;20159;-38
2024/04/04 09:02:45;;;;;;;2.75;1.70;;;;;;;30.19;20.99;99540.06;5093367;28;20020;-41
2024/04/04 09:05:10;;;;;;;4.80;1.90;;;;;;;31.09;20.44;99541.06;5093437;28;20024;-39
2024/04/04 09:07:36;;;;;;;7.38;1.67;;;;;;;30.86;20.34;99529.72;5092920;28;20032;-42
2024/04/04 09:10:05;;;;;;;7.32;1.98;;;;;;;30.73;20.46;99528.13;5093239;28;20033;-46
2024/04/04 09:12:31;;;;;;;3.00;1.73;;;;;;;31.47;19.83;99525.28;5093131;28;20035;-43
2024/04/04 09:15:00;;;;;;;2.63;1.55;;;;;;;31.27;19.91;99522.34;5093049;28;20020;-40
2024/04/04 09:17:27;;;;;;;2.20;1.33;;;;;;;31.64;19.55;99519.47;5093098;28;20563;-41
2024/04/04 09:19:56;;;;;;;4.18;1.50;;;;;;;31.40;19.86;99520.38;5093078;28;20077;-40
2024/04/04 09:22:23;;;;;;;6.00;2.28;;;;;;;29.78;20.90;99503.41;5083557;28;20111;-43
2024/04/04 09:24:48;;;;;;;3.33;1.80;;;;;;;30.01;20.84;99512.81;5081591;28;20114;-41
2024/04/04 09:27:20;;;;;;;2.80;1.60;;;;;;;30.75;20.55;99504.69;5079718;28;20107;-40
2024/04/04 09:29:46;;;;;;;2.95;1.60;;;;;;;30.08;20.54;99509.50;5088819;28;20575;-42
2024/04/04 09:32:17;;;;;;;4.40;1.50;;;;;;;29.15;21.74;99497.94;5093094;28;20024;-47
2024/04/04 09:34:43;;;;;;;5.97;1.70;;;;;;;29.88;21.12;99507.66;5092473;28;20016;-42
2024/04/04 09:37:09;;;;;;;4.22;1.63;;;;;;;30.43;20.78;99494.63;5092589;28;20028;-42
2024/04/04 09:39:35;;;;;;;6.18;1.60;;;;;;;31.14;20.04;99498.78;5080325;28;20520;-40
2024/04/04 09:42:03;;;;;;;3.40;1.35;;;;;;;31.63;19.79;99504.16;5088075;28;20023;-38
2024/04/04 09:44:28;;;;;;;3.23;1.53;;;;;;;30.33;21.04;99484.88;5091774;28;20481;-41
2024/04/04 09:46:57;;;;;;;2.45;1.48;;;;;;;30.74;20.75;99485.78;5075956;28;20028;-38
2024/04/04 09:49:23;;;;;;;;;;;;;;;31.65;19.62;99479.84;5081489;28;20016;-39
2024/04/04 09:51:51;;;;;;;3.33;1.60;;;;;;;30.79;19.85;99480.88;5082578;28;19912;-41
2024/04/04 09:54:18;;;;;;;6.10;1.60;;;;;;;30.68;20.78;99478.94;5092297;28;20027;-39
2024/04/04 09:56:44;;;;;;;4.43;1.83;;;;;;;31.07;20.17;99476.59;5085514;28;20462;-42
2024/04/04 09:59:10;;;;;;;5.00;1.85;;;;;;;31.38;20.00;99470.44;5082303;28;20081;-41
2024/04/04 10:01:37;;;;;;;5.95;3.10;;;;;;;31.11;20.20;99474.75;5092195;28;20024;-39
2024/04/04 10:04:05;;;;;;;13.25;10.23;;;;;;;30.87;20.17;99473.66;5091820;28;20067;-38
2024/04/04 10:06:44;;;;;;;3.08;1.77;;;;;;;31.46;19.68;99457.69;5092069;28;20338;-40
2024/04/04 10:09:18;;;;;;;8.88;1.80;;;;;;;30.57;19.69;99465.66;5091968;28;20016;-39
2024/04/04 10:11:44;;;;;;;5.57;1.77;;;;;;;30.33;19.90;99451.94;5092419;28;20038;-36
2024/04/04 10:14:15;;;;;;;5.95;1.50;;;;;;;30.31;19.69;99463.25;5091587;28;20016;-39
2024/04/04 10:16:44;;;;;;;3.88;1.63;;;;;;;30.31;20.24;99455.03;5090856;28;20024;-38
2024/04/04 10:19:36;;;;;;;2.30;1.35;;;;;;;31.29;19.42;99458.78;5090287;28;20480;-39
2024/04/04 10:22:02;;;;;;;4.80;1.63;;;;;;;31.05;19.80;99448.69;5084945;28;20032;-40
2024/04/04 10:24:29;;;;;;;2.53;1.67;;;;;;;30.78;19.23;99446.28;5090729;28;20034;-40
2024/04/04 10:27:02;;;;;;;7.13;1.40;;;;;;;31.06;19.60;99445.59;5091197;28;20027;-41
2024/04/04 10:29:30;;;;;;;3.17;1.60;;;;;;;31.73;19.11;99447.84;5089028;28;20022;-39
2024/04/04 10:31:56;;;;;;;5.32;1.77;;;;;;;32.17;19.06;99444.25;5092257;28;20127;-43
2024/04/04 10:34:21;;;;;;;5.18;1.60;;;;;;;32.17;19.19;99439.53;5091980;28;20084;-39
2024/04/04 10:36:47;;;;;;;4.68;1.70;;;;;;;32.71;18.96;99436.09;5090883;28;20099;-42
2024/04/04 10:39:16;;;;;;;5.03;1.80;;;;;;;32.66;17.27;99446.59;5082854;28;20048;-40
2024/04/04 10:41:44;;;;;;;6.78;1.50;;;;;;;32.26;18.07;99436.59;5091347;28;20055;-42
2024/04/04 10:44:11;;;;;;;4.72;1.98;;;;;;;31.69;18.06;99435.94;5090381;28;20069;-37
2024/04/04 10:46:41;;;;;;;4.47;2.05;;;;;;;31.54;18.80;99430.06;5090237;28;20020;-39
2024/04/04 10:49:07;;;;;;;5.65;2.67;;;;;;;30.63;18.43;99424.25;5090566;28;20589;-38
2024/04/04 10:51:33;;;;;;;4.43;2.03;;;;;;;30.75;18.91;99425.03;5090541;28;20016;-39
2024/04/04 10:53:58;;;;;;;4.07;2.38;;;;;;;31.22;18.47;99429.16;5090687;28;20036;-41
2024/04/04 10:56:25;;;;;;;4.70;2.10;;;;;;;31.21;18.70;99422.06;5090453;28;20062;-42
2024/04/04 10:58:51;;;;;;;3.95;1.75;;;;;;;31.47;18.88;99426.31;5090489;28;20093;-41
2024/04/04 11:01:16;;;;;;;5.47;1.90;;;;;;;31.71;18.96;99419.88;5090993;28;20627;-38
2024/04/04 11:03:42;;;;;;;4.50;1.95;;;;;;;30.97;18.89;99418.25;5091324;28;20065;-40
2024/04/04 11:06:07;;;;;;;4.45;1.80;;;;;;;31.16;18.79;99416.81;5091070;28;20033;-38
2024/04/04 11:08:33;;;;;;;6.38;1.80;;;;;;;31.07;18.48;99416.16;5091284;28;20020;-39
2024/04/04 11:10:59;;;;;;;6.43;2.00;;;;;;;31.58;18.22;99410.91;5091358;28;20024;-39
2024/04/04 11:13:27;;;;;;;3.45;1.98;;;;;;;31.83;17.98;99411.53;5094956;28;20013;-40
2024/04/04 11:15:55;;;;;;;8.13;1.97;;;;;;;32.05;17.84;99395.63;5099789;28;20036;-41
2024/04/04 11:18:20;;;;;;;5.07;2.00;;;;;;;31.88;18.24;99410.50;5094904;28;20016;-40
2024/04/04 11:20:46;;;;;;;3.38;2.00;;;;;;;32.43;17.30;99407.91;5082370;28;20025;-39
2024/04/04 11:23:11;;;;;;;6.70;2.10;;;;;;;33.03;17.08;99402.13;5082961;28;20035;-30
2024/04/04 11:25:37;;;;;;;3.70;2.10;;;;;;;33.46;16.37;99401.00;5071086;28;20021;-31
2024/04/04 11:28:03;;;;;;;3.65;2.30;;;;;;;32.11;16.79;99403.22;5070785;28;20447;-28